Brady, Montana
Current Conditions -  °F | °C
As of 12:53 AM on Friday 28 Nov 2014 (Local Time) from KGTF Reporting Station
Clear Clear  
Wind Chill: 39°   Ceiling: Unl
Heat Index: 46°   Visibility: 10mi
Dew Point: 35°   Wind: 18mph
Humidity: 66%   Direction: 240°WSW
Pressure: 29.62"   Gusts: NA
Location:  48.03°N, 111.85°W
Report Text: KGTF 280753Z 24016KT 10SM CLR 08/02 A2962 RMK AO2 SLP029 T00780017
Loading
Personal Weather Stations






























Interactive Weather Map New forecast layout! Learn more

10-Day Weather Forecast

Advertisements
Track Severe Weather on mobile